Norwalk, CT (06854)

3:07 AM EDT on April 28, 2015 (GMT -0400)
Bluff Point, Mouth of Saugatuck River | | Change Station
CLOSE
Current Station
Personal Weather Station
Location: Westport, CT
Elevation: 16 ft
Nearby Weather Stations

Elev 16 ft 41.10 °N, 73.37 °W | Updated 10 minutes ago

Overcast
Overcast
49.5 °F
Feels Like 44 °F
N
17.0
Wind Variable Wind from NW
Gusts 18.0 mph

Today
High -- | Low -- °F
--% Chance of Precip.
Yesterday
High -- | Low -- °F
Precip. -- in
5:55 AM 7:47 PM
Waxing Gibbous, 71% visible
Pressure 29.70 in
Visibility 10.0 miles
Clouds Scattered Clouds 3700 ft
Mostly Cloudy 4900 ft
Windchill 44 °F
Dew Point 43 °F
Humidity 77%
Rainfall 0.00 in
Snow Depth Not available.
UV 0 out of 12
Pollen 9.70 out of 12
Air Quality Not available.
Flu Activity Widespread
METAR KHPN 280656Z 32008KT 10SM SCT037 BKN049 09/04 A2970

More Conditions Fewer Conditions

Pressure 29.70 in
Visibility 10.0 miles
Clouds Scattered Clouds 3700 ft
Mostly Cloudy 4900 ft
Windchill 44 °F
Dew Point 43 °F
Humidity 77%
Rainfall 0.00 in
Snow Depth Not available.
UV 0 out of 12
Pollen 9.70 out of 12
Air Quality Not available.
Flu Activity Widespread
METAR KHPN 280656Z 32008KT 10SM SCT037 BKN049 09/04 A2970

More Conditions Fewer Conditions

10-Day Weather Forecast

Almanac

Astronomy

Apr. 28, 2015 Rise Set
Actual Time
Civil Twilight
Nautical Twilight
Astronomical Twilight
Moon
Length of Visible Light
Length of Day
Tomorrow will be .
, % of the Moon is Illuminated

Today's Extremes

State Highs State Lows

Community

WunderPhotos

Upload Photos

1,817,592 photos uploaded!

WunderBlogs® & News

Nearby

Air Quality

  Air Quality AQ Index Pollutant
Not available.

Snow Depth

Station Depth Elevation

Earthquake Activity

City Distance Mag. Time & Date
Minimum magnitude displayed is 2.5.

Coastal Water Temperatures

Place Temperature

Stations

Nearby Weather Stations

Station Location Temp. Windchill Dew Point Humidity Wind Precip. Elev Updated Type